VG45 weather

Medical College of Virginia Heliport
Richmond, Virginia, United States

Public forecast

Using degrees Fahrenheit for public forecast. Weather courtesy of forecast.io.

Closest aviation weather report (METAR) to Medical College of Virginia Heliport

Closest report is Richmond International Airport, 6.2 nm (11.5 km) ESE. Retrieved 2020/07/07 04:54 UTC (12 minutes ago):

KRIC 070454Z 18005KT 10SM BKN170 BKN300 26/22 A3007 RMK AO2 SLP185 T02560222 403390217

Closest aviation forecast (TAF) to Medical College of Virginia Heliport

Closest forecast is Richmond International Airport, 6.2 nm (11.5 km) ESE. Retrieved 2020-07-07 00:30 UTC (5 hours ago):

TAF KRIC 062327Z 0700/0724 20005KT P6SM SCT100 BKN250 FM070600 19003KT P6SM SCT120 FM071500 17009KT P6SM SCT050